Terminal Aerodrome Forecast
Issued by NWS Omaha/Valley, NE

Home | Current Version | Previous Version | Text Only | Print | Product List | Glossary On
Versions: 1 2 3 4 5 6 7 8 9 10 11 12 13 14 15 16 17
000
FTUS43 KOAX 101816 AAA
TAFOMA
TAF AMD
KOMA 101816Z 1018/1118 15012KT P6SM SCT050 BKN100
     FM102000 15015G18KT P6SM OVC050
     FM110000 15010KT P6SM SCT025 OVC050
     FM110900 16009KT P6SM OVC025=

USA.gov is the U.S. government's official web portal to all federal, state and local government web resources and services.